Puerto Limon, Costa Rica

1:51 PM CST on April 25, 2015 (GMT -0600)
Limon International | | Change Station
CLOSE
Current Station
Airport
Location: Puerto Limon,
Elevation: 10 ft
Nearby Weather Stations

Elev 10 ft 9.96 °N, 83.02 °W | Updated 51 minutes ago

Scattered Clouds
Scattered Clouds
82 °F
Feels Like 86 °F
N
9
Wind Variable Wind from ESE

Today
High -- | Low -- °F
--% Chance of Precip.
Yesterday
High -- | Low -- °F
Precip. -- in
5:17 AM 5:43 PM
Waxing Crescent, 48% visible
Pressure 29.88 in
Visibility 6.2 miles
Clouds Scattered Clouds 2000 ft
Scattered Clouds 12000 ft
Heat Index 86 °F
Dew Point 70 °F
Humidity 66%
Rainfall 0.00 in
Snow Depth Not available.
UV 13 out of 12
Pollen Not available.
Air Quality Not available.
Flu Activity Not available.
METAR MRLM 251900Z 11008KT 9999 SCT020 SCT120 28/21 A2988

More Conditions Fewer Conditions

Pressure 29.88 in
Visibility 6.2 miles
Clouds Scattered Clouds 2000 ft
Scattered Clouds 12000 ft
Heat Index 86 °F
Dew Point 70 °F
Humidity 66%
Rainfall 0.00 in
Snow Depth Not available.
UV 13 out of 12
Pollen Not available.
Air Quality Not available.
Flu Activity Not available.
METAR MRLM 251900Z 11008KT 9999 SCT020 SCT120 28/21 A2988

More Conditions Fewer Conditions

10-Day Weather Forecast

Almanac

Astronomy

Apr. 25, 2015 Rise Set
Actual Time
Civil Twilight
Nautical Twilight
Astronomical Twilight
Moon
Length of Visible Light
Length of Day
Tomorrow will be .
, % of the Moon is Illuminated

Today's Extremes

Country Highs Country Lows

Community

WunderPhotos

Upload Photos

1,816,791 photos uploaded!

WunderBlogs® & News

Nearby

Air Quality

  Air Quality AQ Index Pollutant
Not available.

Snow Depth

Station Depth Elevation

Earthquake Activity

City Distance Mag. Time & Date
Minimum magnitude displayed is 2.5.

Coastal Water Temperatures

Place Temperature

Stations

Nearby Weather Stations

Station Location Temp. Windchill Dew Point Humidity Wind Precip. Elev Updated Type